Time;durP1;ratioP1;P1;durP2;ratioP2;P2;SDS_P1;SDS_P2;PMS_P1;PMS_P2;Temp;Humidity;BMP_temperature;BMP_pressure;BME280_temperature;BME280_humidity;BME280_pressure;Samples;Min_cycle;Max_cycle;Signal;HPM_P1;HPM_P2
2023/04/19 00:00:30;;;;;;;10.23;4.60;;;8.60;99.90;;;;;;4994562;28;20418;-78
2023/04/19 00:02:56;;;;;;;8.73;4.83;;;8.50;99.90;;;;;;4996307;28;20170;-78
2023/04/19 00:05:23;;;;;;;12.10;4.90;;;8.50;99.90;;;;;;4994821;28;20178;-78
2023/04/19 00:07:49;;;;;;;6.20;4.10;;;8.50;1.00;;;;;;4996225;28;20180;-80
2023/04/19 00:10:14;;;;;;;8.00;4.47;;;8.50;1.00;;;;;;4994702;28;20955;-78
2023/04/19 00:12:40;;;;;;;5.70;3.40;;;8.40;1.00;;;;;;4996258;28;20470;-78
2023/04/19 00:15:06;;;;;;;6.47;4.07;;;8.40;99.90;;;;;;4995917;28;20208;-78
2023/04/19 00:17:33;;;;;;;6.27;3.17;;;8.40;1.00;;;;;;4994321;28;20176;-77
2023/04/19 00:20:01;;;;;;;5.77;3.23;;;8.40;1.00;;;;;;4995873;28;20424;-80
2023/04/19 00:22:26;;;;;;;6.23;3.80;;;8.40;1.00;;;;;;4994889;28;20796;-78
2023/04/19 00:24:52;;;;;;;7.23;4.10;;;8.40;99.90;;;;;;4995813;28;20422;-79
2023/04/19 00:27:18;;;;;;;6.83;3.30;;;8.30;99.90;;;;;;4994637;28;20173;-77
2023/04/19 00:29:44;;;;;;;6.90;3.40;;;8.20;99.90;;;;;;4994123;28;20267;-78
2023/04/19 00:32:10;;;;;;;7.33;3.43;;;8.20;1.00;;;;;;4994011;28;20691;-77
2023/04/19 00:34:35;;;;;;;5.83;3.10;;;8.20;99.90;;;;;;4995661;28;20538;-77
2023/04/19 00:37:03;;;;;;;6.87;3.47;;;8.10;67.50;;;;;;4995605;28;20172;-78
2023/04/19 00:39:28;;;;;;;5.63;3.70;;;8.10;1.00;;;;;;4995467;28;20183;-77
2023/04/19 00:41:56;;;;;;;6.90;3.27;;;8.10;99.90;;;;;;4995541;28;20966;-78
2023/04/19 00:44:21;;;;;;;7.67;3.67;;;8.10;99.90;;;;;;4995209;28;20230;-78
2023/04/19 00:46:47;;;;;;;5.87;4.00;;;8.10;99.90;;;;;;4995098;28;20420;-78
2023/04/19 00:49:17;;;;;;;8.00;3.90;;;8.10;99.90;;;;;;4993685;28;20237;-78
2023/04/19 00:51:42;;;;;;;7.67;3.17;;;8.00;1.00;;;;;;4993291;28;20183;-78
2023/04/19 00:54:08;;;;;;;4.90;3.20;;;;;;;;;;4995289;28;20416;-78
2023/04/19 00:56:35;;;;;;;6.93;3.77;;;;;;;;;;4995210;28;20561;-78
2023/04/19 00:59:01;;;;;;;4.20;2.87;;;;;;;;;;4995046;28;20419;-78
2023/04/19 01:01:27;;;;;;;4.30;3.53;;;;;;;;;;4994652;28;20478;-78
2023/04/19 01:03:54;;;;;;;4.67;2.77;;;;;;;;;;4995204;28;20464;-79
2023/04/19 01:06:20;;;;;;;4.70;3.80;;;;;;;;;;4994981;28;20472;-78
2023/04/19 01:08:46;;;;;;;6.70;2.70;;;;;;;;;;4982786;28;20396;-78
2023/04/19 01:11:12;;;;;;;5.67;2.57;;;;;;;;;;4967034;28;20971;-77
2023/04/19 01:13:38;;;;;;;4.13;2.00;;;;;;;;;;4994932;28;20423;-78
2023/04/19 01:16:05;;;;;;;3.17;2.43;;;;;;;;;;4994637;28;20775;-78
2023/04/19 01:18:36;;;;;;;4.27;2.20;;;;;;;;;;4994858;28;20839;-79
2023/04/19 01:21:02;;;;;;;5.43;2.40;;;;;;;;;;4994888;28;20755;-79
2023/04/19 01:23:28;;;;;;;8.17;3.07;;;;;;;;;;4994831;28;20414;-78
2023/04/19 01:25:54;;;;;;;4.87;2.70;;;;;;;;;;4994748;28;20503;-79
2023/04/19 01:28:19;;;;;;;4.10;1.90;;;;;;;;;;4994720;28;20415;-77
2023/04/19 01:30:45;;;;;;;9.60;2.33;;;;;;;;;;4992839;28;20482;-77
2023/04/19 01:33:11;;;;;;;2.97;1.80;;;;;;;;;;4993189;28;20416;-78
2023/04/19 01:35:37;;;;;;;6.37;1.93;;;;;;;;;;4993315;28;20464;-78
2023/04/19 01:38:04;;;;;;;4.80;2.40;;;;;;;;;;4993150;28;20859;-77
2023/04/19 01:40:30;;;;;;;5.23;2.27;;;;;;;;;;4993120;28;20470;-78
2023/04/19 01:42:56;;;;;;;2.20;1.60;;;;;;;;;;4993093;28;20455;-80
2023/04/19 01:45:21;;;;;;;3.23;1.60;;;;;;;;;;4993687;28;20506;-77
2023/04/19 01:47:47;;;;;;;3.20;2.40;;;;;;;;;;4993025;28;20591;-78
2023/04/19 01:50:13;;;;;;;5.07;2.03;;;;;;;;;;4994053;28;20472;-78
2023/04/19 01:52:39;;;;;;;3.20;1.53;;;;;;;;;;4994198;28;20418;-78
2023/04/19 01:55:05;;;;;;;3.03;2.00;;;;;;;;;;4992794;28;21099;-78
2023/04/19 01:57:31;;;;;;;4.43;2.17;;;;;;;;;;4994103;28;20419;-77
2023/04/19 01:59:57;;;;;;;6.80;3.17;;;;;;;;;;4992620;28;20421;-77
2023/04/19 02:02:23;;;;;;;3.17;1.53;;;;;;;;;;4992367;28;20404;-77
2023/04/19 02:04:49;;;;;;;4.80;2.40;;;;;;;;;;4993993;28;20409;-77
2023/04/19 02:07:15;;;;;;;2.70;1.77;;;;;;;;;;4993930;28;20747;-76
2023/04/19 02:09:41;;;;;;;2.03;0.93;;;;;;;;;;4993683;28;21001;-77
2023/04/19 02:12:07;;;;;;;6.00;2.00;;;;;;;;;;4993729;28;20427;-78
2023/04/19 02:14:32;;;;;;;3.17;2.17;;;;;;;;;;4993840;28;20771;-78
2023/04/19 02:16:58;;;;;;;8.17;2.50;;;;;;;;;;4992267;28;20408;-77
2023/04/19 02:19:24;;;;;;;5.40;2.77;;;;;;;;;;4993797;28;20901;-78
2023/04/19 02:21:52;;;;;;;6.13;2.00;;;;;;;;;;4992482;28;20463;-78
2023/04/19 02:24:18;;;;;;;2.97;1.67;;;;;;;;;;4993765;28;20506;-78
2023/04/19 02:26:44;;;;;;;3.00;1.40;;;;;;;;;;4993717;28;20470;-78
2023/04/19 02:29:10;;;;;;;2.20;1.40;;;;;;;;;;4993638;28;20455;-77
2023/04/19 02:31:36;;;;;;;4.60;2.60;;;;;;;;;;4993324;28;20441;-78
2023/04/19 02:34:02;;;;;;;2.63;1.17;;;;;;;;;;4992386;28;20423;-77
2023/04/19 02:36:27;;;;;;;2.47;1.60;;;;;;;;;;4993670;28;20449;-78
2023/04/19 02:38:53;;;;;;;4.37;2.00;;;;;;;;;;4984011;28;20421;-77
2023/04/19 02:41:19;;;;;;;2.70;1.90;;;;;;;;;;4960455;28;20434;-79
2023/04/19 02:43:45;;;;;;;2.87;2.00;;;;;;;;;;4993343;28;20413;-79
2023/04/19 02:46:11;;;;;;;2.57;1.30;;;;;;;;;;4993261;28;20843;-78
2023/04/19 02:48:37;;;;;;;5.77;1.97;;;;;;;;;;4993169;28;20474;-79
2023/04/19 02:51:03;;;;;;;3.20;1.43;;;;;;;;;;4993253;28;20468;-78
2023/04/19 02:53:29;;;;;;;4.83;2.70;;;;;;;;;;4993388;28;20408;-78
2023/04/19 02:55:55;;;;;;;4.07;2.73;;;;;;;;;;4993485;28;20862;-80
2023/04/19 02:58:25;;;;;;;3.97;2.20;;;;;;;;;;4993469;28;20500;-79
2023/04/19 03:00:51;;;;;;;5.70;2.60;;;;;;;;;;4992941;28;20762;-80
2023/04/19 03:03:17;;;;;;;3.83;2.30;;;;;;;;;;4993372;28;20424;-79
2023/04/19 03:05:42;;;;;;;3.37;2.00;;;;;;;;;;4993443;28;20412;-79
2023/04/19 03:08:09;;;;;;;2.77;1.23;;;;;;;;;;4992193;28;20438;-79
2023/04/19 03:10:35;;;;;;;3.87;1.90;;;;;;;;;;4992079;28;20480;-79
2023/04/19 03:13:01;;;;;;;3.97;1.77;;;;;;;;;;4993721;28;20422;-80
2023/04/19 03:15:27;;;;;;;8.50;2.20;;;;;;;;;;4996831;28;20426;-79
2023/04/19 03:17:53;;;;;;;5.70;1.90;;;;;;;;;;4997063;28;20412;-80
2023/04/19 03:20:19;;;;;;;4.70;2.50;;;;;;;;;;4997141;28;20448;-80
2023/04/19 03:22:45;;;;;;;3.03;2.00;;;;;;;;;;4996886;28;20414;-80
2023/04/19 03:25:12;;;;;;;2.70;2.00;;;;;;;;;;4996938;28;20415;-77
2023/04/19 03:27:38;;;;;;;3.90;1.63;;;;;;;;;;4996863;28;20423;-79
2023/04/19 03:30:04;;;;;;;3.17;2.10;;;;;;;;;;4996419;28;20569;-79
2023/04/19 03:32:31;;;;;;;4.50;2.50;;;;;;;;;;4996801;28;20453;-80
2023/04/19 03:34:59;;;;;;;4.43;2.10;;;;;;;;;;4996703;28;20425;-80
2023/04/19 03:37:25;;;;;;;5.57;2.27;;;;;;;;;;4996875;28;20963;-80
2023/04/19 03:39:51;;;;;;;5.13;3.00;;;;;;;;;;4996787;28;20422;-79
2023/04/19 03:42:17;;;;;;;5.10;2.10;;;;;;;;;;4996823;28;20411;-78
2023/04/19 03:44:43;;;;;;;4.37;2.80;;;;;;;;;;4996112;28;20857;-78
2023/04/19 03:47:09;;;;;;;6.00;3.00;;;;;;;;;;4996504;28;20414;-78
2023/04/19 03:49:35;;;;;;;6.70;2.90;;;;;;;;;;4996458;28;20472;-78
2023/04/19 03:52:01;;;;;;;5.03;2.70;;;;;;;;;;4995213;28;20928;-78
2023/04/19 03:54:27;;;;;;;4.70;2.70;;;;;;;;;;4996376;28;20424;-77
2023/04/19 03:56:53;;;;;;;7.00;2.63;;;;;;;;;;4996473;28;20414;-77
2023/04/19 03:59:19;;;;;;;4.50;2.40;;;;;;;;;;4995080;28;20423;-76
2023/04/19 04:01:45;;;;;;;4.23;2.60;;;;;;;;;;4994663;28;20419;-77
2023/04/19 04:04:11;;;;;;;6.80;2.83;;;;;;;;;;4996240;28;20437;-77
2023/04/19 04:06:37;;;;;;;3.80;2.27;;;;;;;;;;4994893;28;20424;-77
2023/04/19 04:09:03;;;;;;;5.00;2.63;;;;;;;;;;4953613;28;20870;-77
2023/04/19 04:11:29;;;;;;;4.90;3.00;;;;;;;;;;4996158;28;20497;-78
2023/04/19 04:14:02;;;;;;;7.50;3.77;;;;;;;;;;4994824;28;20422;-76
2023/04/19 04:16:27;;;;;;;3.87;2.40;;;;;;;;;;4994375;28;20423;-77
2023/04/19 04:18:53;;;;;;;3.93;2.63;;;;;;;;;;4996008;28;20921;-78
2023/04/19 04:21:23;;;;;;;4.87;3.17;;;;;;;;;;4994731;28;20422;-80
2023/04/19 04:23:49;;;;;;;4.57;2.30;;;;;;;;;;4995698;28;20407;-77
2023/04/19 04:26:15;;;;;;;6.90;2.40;;;;;;;;;;4995756;28;20410;-77
2023/04/19 04:28:41;;;;;;;4.27;3.00;;;;;;;;;;4995763;28;20410;-77
2023/04/19 04:31:08;;;;;;;9.43;3.30;;;;;;;;;;4995411;28;20470;-78
2023/04/19 04:33:34;;;;;;;7.80;3.80;;;;;;;;;;4994511;28;20410;-77
2023/04/19 04:36:06;;;;;;;4.20;2.90;;;;;;;;;;4994426;28;20416;-77
2023/04/19 04:38:32;;;;;;;5.10;3.33;;;;;;;;;;4995526;28;20407;-78
2023/04/19 04:40:58;;;;;;;3.60;2.10;;;;;;;;;;4994278;28;20448;-77
2023/04/19 04:43:27;;;;;;;5.43;3.37;;;;;;;;;;4995518;28;20424;-77
2023/04/19 04:45:56;;;;;;;5.20;2.50;;;;;;;;;;4993647;28;20426;-78
2023/04/19 04:48:23;;;;;;;5.20;2.80;;;;;;;;;;4995252;28;20505;-78
2023/04/19 04:50:49;;;;;;;5.60;2.73;;;;;;;;;;4993864;28;20995;-78
2023/04/19 04:53:15;;;;;;;3.83;2.73;;;;;;;;;;4995062;28;20412;-78
2023/04/19 04:55:41;;;;;;;4.50;2.20;;;;;;;;;;4995248;28;20845;-77
2023/04/19 04:58:09;;;;;;;5.00;2.77;;;;;;;;;;4995101;28;20496;-78
2023/04/19 05:00:35;;;;;;;7.17;2.67;;;;;;;;;;4994787;28;20748;-78
2023/04/19 05:03:01;;;;;;;4.03;2.30;;;;;;;;;;4994954;28;20448;-77
2023/04/19 05:05:27;;;;;;;6.03;1.80;;;;;;;;;;4994697;28;20439;-78
2023/04/19 05:07:53;;;;;;;4.43;2.50;;;;;;;;;;4994803;28;20458;-78
2023/04/19 05:10:20;;;;;;;2.73;1.90;;;;;;;;;;4994783;28;20872;-79
2023/04/19 05:12:45;;;;;;;3.67;2.00;;;;;;;;;;4994915;28;20852;-77
2023/04/19 05:15:14;;;;;;;4.63;1.50;;;;;;;;;;4994424;28;20439;-76
2023/04/19 05:17:42;;;;;;;4.20;2.03;;;;;;;;;;4994637;28;20403;-77
2023/04/19 05:20:08;;;;;;;6.43;2.80;;;;;;;;;;4994755;28;20945;-78
2023/04/19 05:22:34;;;;;;;3.80;2.33;;;;;;;;;;4994588;28;20409;-78
2023/04/19 05:25:03;;;;;;;3.20;1.43;;;;;;;;;;4994587;28;20554;-79
2023/04/19 05:27:31;;;;;;;5.50;2.30;;;;;;;;;;4994488;28;20406;-78
2023/04/19 05:29:57;;;;;;;6.57;1.80;;;;;;;;;;4994050;28;20519;-79
2023/04/19 05:32:23;;;;;;;3.47;1.40;;;;;;;;;;4993140;28;20495;-78
2023/04/19 05:34:49;;;;;;;4.80;0.93;;;;;;;;;;4989028;28;20420;-78
2023/04/19 05:37:15;;;;;;;3.60;1.63;;;;;;;;;;4992444;28;20407;-78
2023/04/19 05:39:41;;;;;;;4.37;1.23;;;;;;;;;;4992985;28;20751;-78
2023/04/19 05:42:10;;;;;;;4.23;1.17;;;;;;;;;;4992916;28;20412;-79
2023/04/19 05:44:36;;;;;;;1.93;0.83;;;;;;;;;;4993542;28;20259;-78
2023/04/19 05:47:02;;;;;;;2.00;0.73;;;;;;;;;;4994087;28;20417;-79
2023/04/19 05:49:31;;;;;;;2.67;0.80;;;;;;;;;;4992831;28;20466;-78
2023/04/19 05:51:56;;;;;;;1.30;0.77;;;;;;;;;;4992401;28;20464;-79
2023/04/19 05:54:22;;;;;;;2.60;0.40;;;;;;;;;;4992816;28;20418;-78
2023/04/19 05:56:48;;;;;;;2.03;0.77;;;;;;;;;;4992669;28;20515;-79
2023/04/19 05:59:14;;;;;;;4.43;0.57;;;;;;;;;;4994004;28;20442;-79
2023/04/19 06:01:40;;;;;;;2.57;0.57;;;;;;;;;;4993176;28;20185;-79
2023/04/19 06:04:06;;;;;;;1.57;0.40;;;;;;;;;;4993318;28;20444;-77
2023/04/19 06:06:32;;;;;;;1.27;0.47;;;;;;;;;;4953340;28;21034;-77
2023/04/19 06:08:58;;;;;;;0.90;0.30;;;;;;;;;;4994047;28;20414;-78
2023/04/19 06:11:24;;;;;;;1.80;0.57;;;;;;;;;;4994040;28;20418;-77
2023/04/19 06:13:50;;;;;;;2.40;0.30;;;;;;;;;;4993913;28;20537;-76
2023/04/19 06:16:16;;;;;;;2.57;0.33;;;;;;;;;;4993546;28;20406;-75
2023/04/19 06:18:42;;;;;;;2.40;0.40;;;;;;;;;;4994083;28;20425;-75
2023/04/19 06:21:08;;;;;;;2.83;1.03;;;;;;;;;;4993593;28;20901;-77
2023/04/19 06:23:34;;;;;;;1.50;0.20;;;;;;;;;;4993835;28;20174;-80
2023/04/19 06:26:00;;;;;;;1.90;0.57;;;;;;;;;;4993794;28;20409;-81
2023/04/19 06:28:26;;;;;;;2.30;0.40;;;;;;;;;;4993692;28;20448;-82
2023/04/19 06:30:52;;;;;;;1.50;0.27;;;;;;;;;;4993239;28;20508;-78
2023/04/19 06:33:20;;;;;;;0.93;0.20;;;;;;;;;;4992386;28;20178;-77
2023/04/19 06:35:46;;;;;;;0.87;0.30;;;;;;;;;;4993723;28;20178;-77
2023/04/19 06:38:12;;;;;;;0.60;0.40;;;;;;;;;;4993576;28;20502;-79
2023/04/19 06:40:38;;;;;;;0.80;0.20;;;;;;;;;;4993476;28;20415;-77
2023/04/19 06:43:04;;;;;;;1.20;0.20;;;;;;;;;;4993495;28;20202;-79
2023/04/19 06:45:30;;;;;;;2.90;0.73;;;;;;;;;;4992843;28;20455;-77
2023/04/19 06:47:56;;;;;;;2.40;0.50;;;;;;;;;;4995379;28;20422;-79
2023/04/19 06:50:22;;;;;;;0.67;0.20;;;;;;;;;;4997445;28;20478;-77
2023/04/19 06:52:48;;;;;;;0.87;0.40;;;;;;;;;;4996160;28;20548;-79
2023/04/19 06:55:14;;;;;;;1.97;0.40;;;;;;;;;;4997465;28;20415;-79
2023/04/19 06:57:41;;;;;;;1.23;0.30;;;;;;;;;;4996104;28;20472;-79
2023/04/19 07:00:07;;;;;;;1.43;0.30;;;;;;;;;;4996991;28;20926;-79
2023/04/19 07:02:33;;;;;;;2.00;0.37;;;;;;;;;;4997337;28;20882;-79
2023/04/19 07:04:59;;;;;;;0.83;0.20;;;;;;;;;;4995973;28;20454;-78
2023/04/19 07:07:25;;;;;;;1.07;0.50;;;;;;;;;;4997365;28;20178;-78
2023/04/19 07:09:51;;;;;;;1.07;0.63;;;;;;;;;;4995771;28;20455;-79
2023/04/19 07:12:17;;;;;;;2.70;0.20;;;;;;;;;;4995761;28;20659;-81
2023/04/19 07:14:43;;;;;;;4.03;0.50;;;;;;;;;;4991611;28;20248;-84
2023/04/19 07:17:13;;;;;;;0.60;0.43;;;;;;;;;;4992822;28;20192;-86
2023/04/19 07:19:47;;;;;;;1.63;0.40;;;;;;;;;;4994518;28;20442;-87
2023/04/19 07:22:16;;;;;;;0.50;0.20;;;;;;;;;;4993356;28;20448;-88
2023/04/19 07:24:43;;;;;;;0.73;0.20;;;;;;;;;;4994558;28;20415;-87
2023/04/19 07:27:09;;;;;;;0.83;0.30;;;;;;;;;;4994366;28;20935;-86
2023/04/19 07:29:35;;;;;;;1.53;0.43;;;;;;;;;;4978118;28;20831;-84
2023/04/19 07:32:02;;;;;;;0.70;0.20;;;;;;;;;;4995673;28;20883;-86
2023/04/19 07:34:31;;;;;;;0.80;0.23;;;;;;;;;;4994438;28;20410;-87
2023/04/19 07:36:57;;;;;;;0.70;0.23;;;;;;;;;;4994325;28;20429;-87
2023/04/19 07:39:23;;;;;;;0.70;0.20;;;;;;;;;;4995697;28;20502;-86
2023/04/19 07:41:49;;;;;;;1.57;0.30;;;;;;;;;;4995441;28;20222;-88
2023/04/19 07:44:17;;;;;;;1.30;0.30;;;;;;;;;;4993811;28;20475;-87
2023/04/19 07:46:44;;;;;;;1.07;0.40;;;;;;;;;;4993957;28;20427;-85
2023/04/19 07:49:10;;;;;;;0.60;0.40;;;;;;;;;;4995364;28;20813;-85
2023/04/19 07:51:38;;;;;;;2.60;0.50;;;;;;;;;;4994949;28;20437;-83
2023/04/19 07:54:04;;;;;;;0.93;0.20;;;;;;;;;;4994727;28;20228;-83
2023/04/19 07:56:33;;;;;;;1.67;0.30;;;;;;;;;;4994950;28;20424;-82
2023/04/19 07:58:59;;;;;;;0.60;0.20;;;;;;;;;;4995154;28;20189;-83
2023/04/19 08:01:25;;;;;;;1.13;0.27;;;;;;;;;;4994862;28;20423;-83
2023/04/19 08:03:51;;;;;;;1.13;0.30;;;;;;;;;;4954668;28;20501;-83
2023/04/19 08:06:17;;;;;;;0.80;0.30;;;;;;;;;;4996056;28;20416;-82
2023/04/19 08:08:43;;;;;;;2.07;0.47;;;;;;;;;;4994822;28;20816;-83
2023/04/19 08:11:09;;;;;;;0.83;0.20;;;;;;;;;;4994643;28;20265;-83
2023/04/19 08:13:35;;;;;;;1.17;0.20;;;;;;;;;;4994696;28;20781;-83
2023/04/19 08:16:01;;;;;;;0.60;0.20;;;;;;;;;;4994240;28;20433;-84
2023/04/19 08:18:30;;;;;;;1.00;0.20;;;;;;;;;;4994585;28;20185;-83
2023/04/19 08:20:56;;;;;;;0.80;0.27;;;;;;;;;;4994571;28;20994;-84
2023/04/19 08:23:22;;;;;;;0.93;0.70;;;;;;;;;;4994609;28;20460;-83
2023/04/19 08:25:48;;;;;;;1.03;0.20;;;;;;;;;;4995768;28;20561;-83
2023/04/19 08:28:20;;;;;;;0.80;0.30;;;;;;;;;;4994359;28;20517;-83
2023/04/19 08:30:46;;;;;;;1.20;0.30;;;;;;;;;;4994944;28;20505;-87
2023/04/19 08:33:34;;;;;;;1.90;0.40;;;;;;;;;;5005918;28;20418;-86
2023/04/19 08:36:00;;;;;;;1.47;0.30;;;;;;;;;;5006681;28;20442;-90
2023/04/19 08:38:26;;;;;;;10.03;1.07;;;;;;;;;;4993942;28;20927;-84
2023/04/19 08:40:56;;;;;;;1.00;0.20;;;;;;;;;;4995026;28;20415;-88
2023/04/19 08:43:24;;;;;;;1.97;0.50;;;;;;;;;;4995098;28;20175;-85
2023/04/19 08:45:53;;;;;;;0.80;0.40;;;;;;;;;;5009956;28;20462;-84
2023/04/19 08:48:46;;;;;;;1.33;0.70;;;;;;;;;;5010075;28;20929;-94
2023/04/19 08:51:13;;;;;;;2.00;0.30;;;;;;;;;;5009852;28;20485;-84
2023/04/19 08:53:40;;;;;;;2.10;0.67;;;;;;;;;;5009666;28;20430;-82
2023/04/19 08:56:13;;;;;;;0.80;0.40;;;;;;;;;;4994441;28;20430;-85
2023/04/19 08:58:43;;;;;;;1.77;0.70;;;;;;;;;;4994607;28;20415;-87
2023/04/19 09:01:10;;;;;;;1.40;0.50;;;;;;;;;;5009822;28;20473;-90
2023/04/19 09:03:43;;;;;;;1.07;0.57;;;;;;;;;;5010486;28;20453;-84
2023/04/19 09:06:10;;;;;;;2.83;0.50;;;;;;;;;;5013660;28;20524;-91
2023/04/19 09:08:37;;;;;;;1.33;0.70;;;;;;;;;;5013527;28;20425;-85
2023/04/19 09:11:03;;;;;;;2.03;0.70;;;;;;;;;;4996196;28;20481;-86
2023/04/19 09:13:31;;;;;;;1.83;0.57;;;;;;;;;;5013583;28;20429;-84
2023/04/19 09:16:00;;;;;;;1.90;0.70;;;;;;;;;;5013263;28;20418;-88
2023/04/19 09:18:28;;;;;;;1.20;0.40;;;;;;;;;;4996909;28;20509;-85
2023/04/19 09:20:57;;;;;;;2.60;0.30;;;;;;;;;;5012443;28;20422;-85
2023/04/19 09:23:28;;;;;;;1.57;0.73;;;;;;;;;;5012845;28;20509;-87
2023/04/19 09:25:55;;;;;;;1.43;0.57;;;;;;;;;;4962061;28;20788;-84
2023/04/19 09:28:21;;;;;;;1.93;0.47;;;;;;;;;;4989603;28;20455;-86
2023/04/19 09:30:47;;;;;;;3.40;0.63;;;;;;;;;;4974756;28;20891;-84
2023/04/19 09:33:14;;;;;;;1.83;0.50;;;;;;;;;;4989717;28;20438;-92
2023/04/19 09:35:44;;;;;;;0.90;0.50;;;;;;;;;;4990098;28;20459;-84
2023/04/19 09:38:13;;;;;;;2.00;0.57;;;;;;;;;;4990578;28;20431;-85
2023/04/19 09:40:40;;;;;;;1.07;0.47;;;;;;;;;;4989502;28;20427;-86
2023/04/19 09:43:06;;;;;;;2.23;0.80;;;;;;;;;;4973234;28;20483;-86
2023/04/19 09:45:41;;;;;;;2.40;1.20;;;;;;;;;;4989141;28;20486;-87
2023/04/19 09:48:08;;;;;;;1.83;0.53;;;;;;;;;;4989583;28;20450;-87
2023/04/19 09:50:37;;;;;;;0.97;0.40;;;;;;;;;;4989271;28;20845;-87
2023/04/19 09:53:03;;;;;;;1.77;0.90;;;;;;;;;;4989430;28;20424;-85
2023/04/19 09:55:30;;;;;;;5.50;0.83;;;;;;;;;;4989340;28;21015;-89
2023/04/19 09:57:56;;;;;;;1.00;0.53;;;;;;;;;;4975156;28;20408;-86
2023/04/19 10:00:22;;;;;;;1.53;1.30;;;;;;;;;;4989395;28;20952;-82
2023/04/19 10:02:54;;;;;;;1.70;0.60;;;;;;;;;;4989969;28;20183;-82
2023/04/19 10:05:24;;;;;;;1.30;0.40;;;;;;;;;;4974880;28;20463;-89
2023/04/19 10:07:50;;;;;;;1.33;0.77;;;;;;;;;;4989000;28;20427;-83
2023/04/19 10:10:16;;;;;;;2.77;0.70;;;;;;;;;;4988691;28;20478;-84
2023/04/19 10:12:46;;;;;;;0.93;0.50;;;;;;;;;;4972648;28;20860;-83
2023/04/19 10:15:13;;;;;;;1.63;0.63;;;;;;;;;;4973473;28;20411;-82
2023/04/19 10:17:39;;;;;;;2.30;0.43;;;;;;;;;;4973336;28;20420;-82
2023/04/19 10:20:10;;;;;;;1.73;0.60;;;;;;;;;;4988670;28;20999;-81
2023/04/19 10:22:37;;;;;;;1.80;0.67;;;;;;;;;;4973452;28;20179;-83
2023/04/19 10:25:14;;;;;;;1.17;0.77;;;;;;;;;;4988702;28;20535;-82
2023/04/19 10:27:44;;;;;;;2.63;0.70;;;;;;;;;;4965048;28;20442;-82
2023/04/19 10:30:16;;;;;;;2.47;0.80;;;;;;;;;;4992789;28;20474;-82
2023/04/19 10:32:44;;;;;;;4.10;0.90;;;;;;;;;;4993116;28;20448;-84
2023/04/19 10:35:17;;;;;;;1.87;0.90;;;;;;;;;;5024567;28;20423;-84
2023/04/19 10:38:01;;;;;;;1.70;0.63;;;;;;;;;;5008032;28;20452;-85
2023/04/19 10:40:46;;;;;;;2.10;0.87;;;;;;;;;;5008056;28;20426;-84
2023/04/19 10:43:12;;;;;;;2.27;0.90;;;;;;;;;;4992980;28;20461;-84
2023/04/19 10:45:39;;;;;;;1.60;0.80;;;;;;;;;;4992619;28;20561;-81
2023/04/19 10:48:05;;;;;;;2.40;0.77;;;;;;;;;;4992869;28;20407;-82
2023/04/19 10:50:53;;;;;;;1.47;0.80;;;;;;;;;;5007856;28;20484;-85
2023/04/19 10:53:39;;;;;;;2.70;1.33;;;;;;;;;;5004402;28;20271;-83
2023/04/19 10:56:07;;;;;;;1.63;1.23;;;;;;;;;;5007825;28;20422;-82
2023/04/19 10:58:53;;;;;;;2.20;0.80;;;;;;;;;;4992601;28;20409;-85
2023/04/19 11:01:38;;;;;;;1.77;0.93;;;;;;;;;;5008001;28;20934;-85
2023/04/19 11:04:08;;;;;;;2.40;0.87;;;;;;;;;;4992847;28;20414;-85
2023/04/19 11:06:34;;;;;;;1.83;0.60;;;;;;;;;;5008593;28;20526;-85
2023/04/19 11:09:01;;;;;;;1.43;0.83;;;;;;;;;;5007804;28;20998;-84
2023/04/19 11:11:28;;;;;;;2.80;1.10;;;;;;;;;;4992531;28;20493;-82
2023/04/19 11:13:55;;;;;;;3.63;1.47;;;;;;;;;;5007822;28;20418;-83
2023/04/19 11:16:21;;;;;;;2.20;0.73;;;;;;;;;;5008231;28;20455;-83
2023/04/19 11:18:47;;;;;;;4.37;0.90;;;;;;;;;;5008263;28;20458;-84
2023/04/19 11:21:13;;;;;;;2.00;1.10;;;;;;;;;;5008249;28;20266;-83
2023/04/19 11:23:40;;;;;;;1.83;1.03;;;;;;;;;;5008159;28;20419;-86
2023/04/19 11:26:10;;;;;;;4.53;1.30;;;;;;;;;;5008398;28;20470;-85
2023/04/19 11:28:37;;;;;;;1.40;0.93;;;;;;;;;;4973229;28;20648;-85
2023/04/19 11:31:03;;;;;;;4.20;0.93;;;;;;;;;;4991678;28;21076;-86
2023/04/19 11:33:32;;;;;;;1.33;1.10;;;;;;;;;;4993248;28;20415;-87
2023/04/19 11:35:58;;;;;;;1.50;0.60;;;;;;;;;;4996356;28;20411;-86
2023/04/19 11:38:26;;;;;;;2.13;0.90;;;;;;;;;;4995405;28;20426;-87
2023/04/19 11:41:00;;;;;;;1.30;0.60;;;;;;;;;;4995318;28;20423;-85
2023/04/19 11:43:32;;;;;;;1.20;0.50;;;;;;;;;;4978888;28;20430;-86
2023/04/19 11:46:05;;;;;;;1.90;0.70;;;;;;;;;;4995083;28;20482;-87
2023/04/19 11:48:31;;;;;;;2.00;0.70;;;;;;;;;;4995217;28;20429;-86
2023/04/19 11:50:59;;;;;;;3.90;0.97;;;;;;;;;;4996174;28;20478;-84
2023/04/19 11:53:26;;;;;;;2.50;0.80;;;;;;;;;;4995308;28;20419;-83
2023/04/19 11:55:52;;;;;;;1.27;0.50;;;;;;;;;;4995088;28;20429;-84
2023/04/19 11:58:34;;;;;;;1.97;0.90;;;;;;;;;;4994713;28;20419;-80
2023/04/19 12:01:11;;;;;;;2.20;0.40;;;;;;;;;;4995073;28;20176;-83
2023/04/19 12:03:41;;;;;;;2.20;0.63;;;;;;;;;;4996214;28;20785;-82
2023/04/19 12:06:10;;;;;;;1.87;0.93;;;;;;;;;;4994892;28;20415;-82
2023/04/19 12:08:38;;;;;;;4.17;1.13;;;;;;;;;;4994800;28;20843;-82
2023/04/19 12:11:05;;;;;;;2.13;0.70;;;;;;;;;;4996001;28;20978;-84
2023/04/19 12:13:31;;;;;;;2.73;0.77;;;;;;;;;;4994409;28;20494;-85
2023/04/19 12:15:57;;;;;;;2.70;0.93;;;;;;;;;;4995955;28;20423;-86
2023/04/19 12:18:24;;;;;;;2.20;0.80;;;;;;;;;;4994690;28;20434;-84
2023/04/19 12:20:51;;;;;;;2.13;1.07;;;;;;;;;;4996004;28;20509;-84
2023/04/19 12:23:18;;;;;;;2.90;0.97;;;;;;;;;;4995804;28;20933;-83
2023/04/19 12:25:45;;;;;;;3.10;0.90;;;;;;;;;;4995846;28;20419;-83
2023/04/19 12:28:11;;;;;;;1.67;1.10;;;;;;;;;;4994565;28;20872;-83
2023/04/19 12:30:37;;;;;;;2.60;1.17;;;;;;;;;;4995535;28;20998;-84
2023/04/19 12:33:03;;;;;;;3.93;1.37;;;;;;;;;;4994559;28;20422;-84
2023/04/19 12:35:29;;;;;;;1.57;1.07;;;;;;;;;;4995610;28;20418;-84
2023/04/19 12:37:56;;;;;;;4.80;0.40;;;;;;;;;;4994463;28;20446;-84
2023/04/19 12:40:23;;;;;;;2.27;1.17;;;;;;;;;;4995582;28;20422;-83
2023/04/19 12:42:49;;;;;;;2.40;0.83;;;;;;;;;;4995426;28;20411;-84
2023/04/19 12:45:15;;;;;;;1.63;0.90;;;;;;;;;;4994873;28;20474;-83
2023/04/19 12:47:42;;;;;;;1.83;0.83;;;;;;;;;;4995527;28;20454;-86
2023/04/19 12:50:09;;;;;;;2.43;1.13;;;;;;;;;;4994083;28;20501;-84
2023/04/19 12:52:35;;;;;;;1.80;0.90;;;;;;;;;;4994070;28;20549;-83
2023/04/19 12:55:01;;;;;;;3.27;0.53;;;;;;;;;;4995236;28;20445;-85
2023/04/19 12:57:27;;;;;;;3.17;1.07;;;;;;;;;;4995135;28;20176;-82
2023/04/19 12:59:53;;;;;;;0.70;0.30;;;;;;;;;;4994886;28;20423;-83
2023/04/19 13:02:19;;;;;;;3.50;1.17;;;;;;;;;;4995190;28;20411;-83
2023/04/19 13:04:45;;;;;;;1.63;0.97;;;;;;;;;;4995093;28;20183;-82
2023/04/19 13:07:10;;;;;;;3.07;0.93;;;;;;;;;;4995025;28;20176;-83
2023/04/19 13:09:36;;;;;;;1.97;1.07;;;;;;;;;;4994838;28;20210;-80
2023/04/19 13:12:03;;;;;;;2.23;0.60;;;;;;;;;;4994749;28;20180;-84
2023/04/19 13:14:29;;;;;;;1.70;0.90;;;;;;;;;;4994420;28;20223;-82
2023/04/19 13:16:58;;;;;;;1.27;0.80;;;;;;;;;;4994875;28;20419;-85
2023/04/19 13:19:24;;;;;;;1.80;0.47;;;;;;;;;;4994738;28;20537;-83
2023/04/19 13:21:50;;;;;;;1.33;0.57;;;;;;;;;;4995543;28;20411;-85
2023/04/19 13:24:17;;;;;;;2.60;0.60;;;;;;;;;;4952942;28;20834;-82
2023/04/19 13:26:45;;;;;;;2.50;0.90;;;;;;;;;;4994400;28;20179;-82
2023/04/19 13:29:11;;;;;;;1.43;0.53;;;;;;;;;;4993370;28;20427;-82
2023/04/19 13:31:37;;;;;;;2.43;0.70;;;;;;;;;;4991540;28;20481;-83
2023/04/19 13:34:03;;;;;;;1.27;0.60;;;;;;;;;;4991763;28;20448;-84
2023/04/19 13:36:29;;;;;;;2.10;0.80;;;;;;;;;;4993645;28;20911;-85
2023/04/19 13:38:55;;;;;;;1.43;0.63;;;;;;;;;;4993492;28;20598;-83
2023/04/19 13:41:21;;;;;;;2.33;0.77;;;;;;;;;;4993308;28;20505;-82
2023/04/19 13:43:48;;;;;;;6.23;1.17;;;;;;;;;;4992289;28;20527;-82
2023/04/19 13:46:14;;;;;;;2.47;0.60;;;;;;;;;;4992991;28;20513;-85
2023/04/19 13:48:39;;;;;;;2.27;1.00;;;;;;;;;;5009040;28;20429;-85
2023/04/19 13:51:06;;;;;;;1.20;0.40;;;;;;;;;;5012633;28;20482;-85
2023/04/19 13:53:32;;;;;;;2.07;0.73;;;;;;;;;;5011380;28;20211;-86
2023/04/19 13:55:58;;;;;;;1.40;0.60;;;;;;;;;;5001176;28;20863;-85
2023/04/19 13:58:24;;;;;;;2.23;0.70;;;;;;;;;;4985405;28;20180;-85
2023/04/19 14:00:50;;;;;;;2.93;0.97;;;;;;;;;;4991459;28;20441;-82
2023/04/19 14:03:16;;;;;;;1.80;0.67;;;;;;;;;;4992255;28;20418;-84
2023/04/19 14:05:42;;;;;;;4.73;0.93;;;;;;;;;;4993412;28;20412;-83
2023/04/19 14:08:08;;;;;;;4.27;0.60;;;;;;;;;;4998279;28;20450;-84
2023/04/19 14:10:35;;;;;;;1.63;0.50;;;;;;;;;;5011806;28;20484;-86
2023/04/19 14:13:01;;;;;;;3.87;0.60;;;;;;;;;;4990027;28;20498;-82
2023/04/19 14:15:27;;;;;;;2.50;0.50;;;;;;;;;;5012461;28;20441;-90
2023/04/19 14:17:53;;;;;;;2.17;1.23;;;;;;;;;;5012531;28;20910;-88
2023/04/19 14:20:20;;;;;;;1.37;0.53;;;;;;;;;;5009986;28;20428;-86
2023/04/19 14:22:46;;;;;;;1.80;0.90;;;;;;;;;;4992193;28;20402;-82
2023/04/19 14:25:13;;;;;;;2.73;0.70;;;;;;;;;;4951080;28;20445;-85
2023/04/19 14:27:39;;;;;;;2.20;0.80;;;;;;;;;;4993629;28;20911;-87
2023/04/19 14:30:06;;;;;;;4.00;1.03;;;;;;;;;;4993065;28;20467;-85
2023/04/19 14:32:32;;;;;;;0.90;0.53;;;;;;;;;;4993491;28;20811;-86
2023/04/19 14:34:59;;;;;;;4.60;0.50;;;;;;;;;;4992721;28;20450;-87